Terminal Aerodrome Forecast
Issued by NWS

Home | Current Version | Previous Version | Text Only | Print | Product List | Glossary On
Versions: 1 2 3 4 5 6 7 8 9 10 11 12 13 14 15 16 17 18 19 20 21 22 23 24 25 26 27 28 29 30 31
000
FTUS43 KDLH 212339
TAFBRD
TAF
KBRD 212339Z 2200/2224 04007KT 3/4SM BR OVC002
     FM220200 04005KT 1/2SM -DZ FG OVC002
     FM221600 34003KT 1 1/2SM BR OVC003
     FM222100 31006KT 4SM BR OVC007=

USA.gov is the U.S. government's official web portal to all federal, state and local government web resources and services.